TAF EDLW 190420Z 1905/1924 18006KT 9999 SCT030
BECMG 1909/1912 24007KT
PROB30
TEMPO 1912/1917 SHRA BKN025CB
PROB40
TEMPO 1921/1924 BKN009
From batch tds/tafs/production/2023/3/19/h04_m36_tafs.cache.xml
Issued (12 months ago)
Forecasts
1905/1909 18006KT P6SM SCT3000

---
fcst_time_to: '2023-03-19T09:00:00Z'
sky_condition:
- sky_cover: SCT
  cloud_base_ft_agl: '3000'
wind_speed_kt: '6'
fcst_time_from: '2023-03-19T05:00:00Z'
wind_dir_degrees: '180'
visibility_statute_mi: '6.21'

BECMG 1912/2000 24007KT P6SM SCT3000

---
fcst_time_to: '2023-03-20T00:00:00Z'
sky_condition:
- sky_cover: SCT
  cloud_base_ft_agl: '3000'
time_becoming: '2023-03-19T12:00:00Z'
wind_speed_kt: '7'
fcst_time_from: '2023-03-19T09:00:00Z'
change_indicator: BECMG
wind_dir_degrees: '240'
visibility_statute_mi: '6.21'

TEMPO 1912/1917 BKNCB2500

---
wx_string: SHRA
probability: '30'
fcst_time_to: '2023-03-19T17:00:00Z'
sky_condition:
- sky_cover: BKN
  cloud_type: CB
  cloud_base_ft_agl: '2500'
fcst_time_from: '2023-03-19T12:00:00Z'
change_indicator: TEMPO

TEMPO 1921/2000 BKN900

---
probability: '40'
fcst_time_to: '2023-03-20T00:00:00Z'
sky_condition:
- sky_cover: BKN
  cloud_base_ft_agl: '900'
fcst_time_from: '2023-03-19T21:00:00Z'
change_indicator: TEMPO

talk